sensor_id;sensor_type;location;lat;lon;timestamp;temperature;humidity
52725;DHT22;38621;52.830;6.914;2023-05-10T00:00:00;13.60;99.90
52725;DHT22;38621;52.830;6.914;2023-05-10T00:02:26;13.60;99.90
52725;DHT22;38621;52.830;6.914;2023-05-10T00:04:52;13.60;99.90
52725;DHT22;38621;52.830;6.914;2023-05-10T00:07:18;13.60;99.90
52725;DHT22;38621;52.830;6.914;2023-05-10T00:09:44;13.50;99.90
52725;DHT22;38621;52.830;6.914;2023-05-10T00:12:09;13.50;99.90
52725;DHT22;38621;52.830;6.914;2023-05-10T00:14:35;13.40;99.90
52725;DHT22;38621;52.830;6.914;2023-05-10T00:17:01;13.30;99.90
52725;DHT22;38621;52.830;6.914;2023-05-10T00:19:26;13.30;99.90
52725;DHT22;38621;52.830;6.914;2023-05-10T00:21:52;13.20;99.90
52725;DHT22;38621;52.830;6.914;2023-05-10T00:24:18;13.10;99.90
52725;DHT22;38621;52.830;6.914;2023-05-10T00:26:44;13.10;99.90
52725;DHT22;38621;52.830;6.914;2023-05-10T00:29:10;13.00;99.90
52725;DHT22;38621;52.830;6.914;2023-05-10T00:31:35;13.00;99.90
52725;DHT22;38621;52.830;6.914;2023-05-10T00:34:01;12.90;99.90
52725;DHT22;38621;52.830;6.914;2023-05-10T00:36:27;12.90;99.90
52725;DHT22;38621;52.830;6.914;2023-05-10T00:38:53;12.80;99.90
52725;DHT22;38621;52.830;6.914;2023-05-10T00:41:19;12.80;99.90
52725;DHT22;38621;52.830;6.914;2023-05-10T00:43:46;12.70;99.90
52725;DHT22;38621;52.830;6.914;2023-05-10T00:46:13;12.70;99.90
52725;DHT22;38621;52.830;6.914;2023-05-10T00:48:39;12.70;99.90
52725;DHT22;38621;52.830;6.914;2023-05-10T00:51:05;12.70;99.90
52725;DHT22;38621;52.830;6.914;2023-05-10T00:53:32;12.60;99.90
52725;DHT22;38621;52.830;6.914;2023-05-10T00:55:58;12.70;99.90
52725;DHT22;38621;52.830;6.914;2023-05-10T00:58:25;12.60;99.90
52725;DHT22;38621;52.830;6.914;2023-05-10T01:00:54;12.60;99.90
52725;DHT22;38621;52.830;6.914;2023-05-10T01:03:21;12.60;99.90
52725;DHT22;38621;52.830;6.914;2023-05-10T01:05:47;12.60;99.90
52725;DHT22;38621;52.830;6.914;2023-05-10T01:08:13;12.50;99.90
52725;DHT22;38621;52.830;6.914;2023-05-10T01:10:39;12.60;99.90
52725;DHT22;38621;52.830;6.914;2023-05-10T01:13:04;12.50;99.90
52725;DHT22;38621;52.830;6.914;2023-05-10T01:15:31;12.50;99.90
52725;DHT22;38621;52.830;6.914;2023-05-10T01:17:57;12.50;99.90
52725;DHT22;38621;52.830;6.914;2023-05-10T01:20:23;12.50;99.90
52725;DHT22;38621;52.830;6.914;2023-05-10T01:26:07;12.50;99.90
52725;DHT22;38621;52.830;6.914;2023-05-10T01:34:02;12.50;99.90
52725;DHT22;38621;52.830;6.914;2023-05-10T01:36:42;12.50;99.90
52725;DHT22;38621;52.830;6.914;2023-05-10T01:39:20;12.50;99.90
52725;DHT22;38621;52.830;6.914;2023-05-10T01:47:29;12.50;99.90
52725;DHT22;38621;52.830;6.914;2023-05-10T01:49:57;12.50;99.90
52725;DHT22;38621;52.830;6.914;2023-05-10T01:52:32;12.40;99.90
52725;DHT22;38621;52.830;6.914;2023-05-10T01:55:15;12.40;99.90
52725;DHT22;38621;52.830;6.914;2023-05-10T01:57:44;12.40;99.90
52725;DHT22;38621;52.830;6.914;2023-05-10T02:00:12;12.40;99.90
52725;DHT22;38621;52.830;6.914;2023-05-10T02:02:45;12.40;99.90
52725;DHT22;38621;52.830;6.914;2023-05-10T02:05:12;12.40;99.90
52725;DHT22;38621;52.830;6.914;2023-05-10T02:07:39;12.40;99.90
52725;DHT22;38621;52.830;6.914;2023-05-10T02:10:07;12.40;99.90
52725;DHT22;38621;52.830;6.914;2023-05-10T02:15:19;12.40;99.90
52725;DHT22;38621;52.830;6.914;2023-05-10T02:17:46;12.40;99.90
52725;DHT22;38621;52.830;6.914;2023-05-10T02:20:14;12.40;99.90
52725;DHT22;38621;52.830;6.914;2023-05-10T02:22:42;12.40;99.90
52725;DHT22;38621;52.830;6.914;2023-05-10T02:25:08;12.40;99.90
52725;DHT22;38621;52.830;6.914;2023-05-10T02:27:36;12.30;99.90
52725;DHT22;38621;52.830;6.914;2023-05-10T02:30:03;12.30;99.90
52725;DHT22;38621;52.830;6.914;2023-05-10T02:32:30;12.30;99.90
52725;DHT22;38621;52.830;6.914;2023-05-10T02:34:57;12.30;99.90
52725;DHT22;38621;52.830;6.914;2023-05-10T02:37:24;12.30;99.90
52725;DHT22;38621;52.830;6.914;2023-05-10T02:39:52;12.30;99.90
52725;DHT22;38621;52.830;6.914;2023-05-10T02:42:25;12.30;99.90
52725;DHT22;38621;52.830;6.914;2023-05-10T02:44:54;12.30;99.90
52725;DHT22;38621;52.830;6.914;2023-05-10T02:47:21;12.30;99.90
52725;DHT22;38621;52.830;6.914;2023-05-10T02:49:47;12.20;99.90
52725;DHT22;38621;52.830;6.914;2023-05-10T02:52:16;12.20;99.90
52725;DHT22;38621;52.830;6.914;2023-05-10T02:54:46;12.20;99.90
52725;DHT22;38621;52.830;6.914;2023-05-10T02:57:16;12.20;99.90
52725;DHT22;38621;52.830;6.914;2023-05-10T02:59:45;12.20;99.90
52725;DHT22;38621;52.830;6.914;2023-05-10T03:02:12;12.20;99.90
52725;DHT22;38621;52.830;6.914;2023-05-10T03:04:38;12.20;99.90
52725;DHT22;38621;52.830;6.914;2023-05-10T03:07:04;12.20;99.90
52725;DHT22;38621;52.830;6.914;2023-05-10T03:09:31;12.20;99.90
52725;DHT22;38621;52.830;6.914;2023-05-10T03:15:00;12.10;99.90
52725;DHT22;38621;52.830;6.914;2023-05-10T03:20:06;12.20;99.90
52725;DHT22;38621;52.830;6.914;2023-05-10T03:22:38;12.10;99.90
52725;DHT22;38621;52.830;6.914;2023-05-10T03:25:07;12.10;99.90
52725;DHT22;38621;52.830;6.914;2023-05-10T03:27:36;12.10;99.90
52725;DHT22;38621;52.830;6.914;2023-05-10T03:30:02;12.10;99.90
52725;DHT22;38621;52.830;6.914;2023-05-10T03:32:29;12.10;99.90
52725;DHT22;38621;52.830;6.914;2023-05-10T03:34:57;12.10;99.90
52725;DHT22;38621;52.830;6.914;2023-05-10T03:37:22;12.10;99.90
52725;DHT22;38621;52.830;6.914;2023-05-10T03:39:48;12.10;99.90
52725;DHT22;38621;52.830;6.914;2023-05-10T03:42:14;12.10;99.90
52725;DHT22;38621;52.830;6.914;2023-05-10T03:44:39;12.10;99.90
52725;DHT22;38621;52.830;6.914;2023-05-10T03:47:05;12.10;99.90
52725;DHT22;38621;52.830;6.914;2023-05-10T03:49:31;12.10;99.90
52725;DHT22;38621;52.830;6.914;2023-05-10T03:51:57;12.10;99.90
52725;DHT22;38621;52.830;6.914;2023-05-10T03:54:23;12.10;99.90
52725;DHT22;38621;52.830;6.914;2023-05-10T03:56:48;12.10;99.90
52725;DHT22;38621;52.830;6.914;2023-05-10T03:59:14;12.10;99.90
52725;DHT22;38621;52.830;6.914;2023-05-10T04:01:40;12.10;99.90
52725;DHT22;38621;52.830;6.914;2023-05-10T04:04:06;12.10;99.90
52725;DHT22;38621;52.830;6.914;2023-05-10T04:06:32;12.10;99.90
52725;DHT22;38621;52.830;6.914;2023-05-10T04:08:57;12.10;99.90
52725;DHT22;38621;52.830;6.914;2023-05-10T04:11:25;12.10;99.90
52725;DHT22;38621;52.830;6.914;2023-05-10T04:13:51;12.10;99.90
52725;DHT22;38621;52.830;6.914;2023-05-10T04:16:17;12.10;99.90
52725;DHT22;38621;52.830;6.914;2023-05-10T04:18:42;12.10;99.90
52725;DHT22;38621;52.830;6.914;2023-05-10T04:21:12;12.10;99.90
52725;DHT22;38621;52.830;6.914;2023-05-10T04:23:39;12.10;99.90
52725;DHT22;38621;52.830;6.914;2023-05-10T04:26:04;12.10;99.90
52725;DHT22;38621;52.830;6.914;2023-05-10T04:28:30;12.10;99.90
52725;DHT22;38621;52.830;6.914;2023-05-10T04:31:06;12.10;99.90
52725;DHT22;38621;52.830;6.914;2023-05-10T04:33:32;12.10;99.90
52725;DHT22;38621;52.830;6.914;2023-05-10T04:35:59;12.00;99.90
52725;DHT22;38621;52.830;6.914;2023-05-10T04:38:24;12.10;99.90
52725;DHT22;38621;52.830;6.914;2023-05-10T04:40:50;12.00;99.90
52725;DHT22;38621;52.830;6.914;2023-05-10T04:43:16;12.00;99.90
52725;DHT22;38621;52.830;6.914;2023-05-10T04:45:42;12.10;99.90
52725;DHT22;38621;52.830;6.914;2023-05-10T04:48:07;12.10;99.90
52725;DHT22;38621;52.830;6.914;2023-05-10T04:50:33;12.10;99.90
52725;DHT22;38621;52.830;6.914;2023-05-10T04:52:59;12.10;99.90
52725;DHT22;38621;52.830;6.914;2023-05-10T04:55:25;12.10;99.90
52725;DHT22;38621;52.830;6.914;2023-05-10T04:57:52;12.10;99.90
52725;DHT22;38621;52.830;6.914;2023-05-10T05:00:18;12.10;99.90
52725;DHT22;38621;52.830;6.914;2023-05-10T05:02:44;12.10;99.90
52725;DHT22;38621;52.830;6.914;2023-05-10T05:05:11;12.20;99.90
52725;DHT22;38621;52.830;6.914;2023-05-10T05:07:37;12.10;99.90
52725;DHT22;38621;52.830;6.914;2023-05-10T05:10:07;12.10;99.90
52725;DHT22;38621;52.830;6.914;2023-05-10T05:12:34;12.20;99.90
52725;DHT22;38621;52.830;6.914;2023-05-10T05:15:00;12.20;99.90
52725;DHT22;38621;52.830;6.914;2023-05-10T05:17:26;12.20;99.90
52725;DHT22;38621;52.830;6.914;2023-05-10T05:19:51;12.20;99.90
52725;DHT22;38621;52.830;6.914;2023-05-10T05:22:17;12.20;99.90
52725;DHT22;38621;52.830;6.914;2023-05-10T05:24:44;12.20;99.90
52725;DHT22;38621;52.830;6.914;2023-05-10T05:27:10;12.20;99.90
52725;DHT22;38621;52.830;6.914;2023-05-10T05:29:36;12.20;99.90
52725;DHT22;38621;52.830;6.914;2023-05-10T05:32:02;12.20;99.90
52725;DHT22;38621;52.830;6.914;2023-05-10T05:34:27;12.20;99.90
52725;DHT22;38621;52.830;6.914;2023-05-10T05:36:53;12.20;99.90
52725;DHT22;38621;52.830;6.914;2023-05-10T05:39:19;12.20;99.90
52725;DHT22;38621;52.830;6.914;2023-05-10T05:41:45;12.30;99.90
52725;DHT22;38621;52.830;6.914;2023-05-10T05:44:11;12.20;99.90
52725;DHT22;38621;52.830;6.914;2023-05-10T05:46:37;12.30;99.90
52725;DHT22;38621;52.830;6.914;2023-05-10T05:49:02;12.30;99.90
52725;DHT22;38621;52.830;6.914;2023-05-10T05:51:28;12.30;99.90
52725;DHT22;38621;52.830;6.914;2023-05-10T05:53:54;12.30;99.90
52725;DHT22;38621;52.830;6.914;2023-05-10T05:56:19;12.30;99.90
52725;DHT22;38621;52.830;6.914;2023-05-10T05:58:50;12.40;99.90
52725;DHT22;38621;52.830;6.914;2023-05-10T06:01:16;12.40;99.90
52725;DHT22;38621;52.830;6.914;2023-05-10T06:03:42;12.50;99.90
52725;DHT22;38621;52.830;6.914;2023-05-10T06:06:07;12.50;99.90
52725;DHT22;38621;52.830;6.914;2023-05-10T06:08:33;12.40;99.90
52725;DHT22;38621;52.830;6.914;2023-05-10T06:11:00;12.40;99.90
52725;DHT22;38621;52.830;6.914;2023-05-10T06:13:25;12.40;99.90
52725;DHT22;38621;52.830;6.914;2023-05-10T06:15:58;12.40;99.90
52725;DHT22;38621;52.830;6.914;2023-05-10T06:18:24;12.40;99.90
52725;DHT22;38621;52.830;6.914;2023-05-10T06:20:50;12.40;99.90
52725;DHT22;38621;52.830;6.914;2023-05-10T06:23:15;12.40;99.90
52725;DHT22;38621;52.830;6.914;2023-05-10T06:25:41;12.40;99.90
52725;DHT22;38621;52.830;6.914;2023-05-10T06:28:07;12.30;99.90
52725;DHT22;38621;52.830;6.914;2023-05-10T06:30:32;12.30;99.90
52725;DHT22;38621;52.830;6.914;2023-05-10T06:32:58;12.40;99.90
52725;DHT22;38621;52.830;6.914;2023-05-10T06:35:24;12.30;99.90
52725;DHT22;38621;52.830;6.914;2023-05-10T06:37:50;12.30;99.90
52725;DHT22;38621;52.830;6.914;2023-05-10T06:40:16;12.40;99.90
52725;DHT22;38621;52.830;6.914;2023-05-10T06:42:42;12.40;99.90
52725;DHT22;38621;52.830;6.914;2023-05-10T06:45:10;12.40;99.90
52725;DHT22;38621;52.830;6.914;2023-05-10T06:47:36;12.40;99.90
52725;DHT22;38621;52.830;6.914;2023-05-10T06:50:01;12.40;99.90
52725;DHT22;38621;52.830;6.914;2023-05-10T06:52:27;12.40;99.90
52725;DHT22;38621;52.830;6.914;2023-05-10T06:54:53;12.40;99.90
52725;DHT22;38621;52.830;6.914;2023-05-10T06:57:19;12.40;99.90
52725;DHT22;38621;52.830;6.914;2023-05-10T06:59:46;12.40;99.90
52725;DHT22;38621;52.830;6.914;2023-05-10T07:02:11;12.40;99.90
52725;DHT22;38621;52.830;6.914;2023-05-10T07:04:37;12.40;99.90
52725;DHT22;38621;52.830;6.914;2023-05-10T07:07:03;12.50;99.90
52725;DHT22;38621;52.830;6.914;2023-05-10T07:09:28;12.50;99.90
52725;DHT22;38621;52.830;6.914;2023-05-10T07:11:55;12.40;99.90
52725;DHT22;38621;52.830;6.914;2023-05-10T07:14:22;12.50;99.90
52725;DHT22;38621;52.830;6.914;2023-05-10T07:16:48;12.50;99.90
52725;DHT22;38621;52.830;6.914;2023-05-10T07:19:14;12.50;99.90
52725;DHT22;38621;52.830;6.914;2023-05-10T07:21:40;12.60;99.90
52725;DHT22;38621;52.830;6.914;2023-05-10T07:24:07;12.60;99.90
52725;DHT22;38621;52.830;6.914;2023-05-10T07:26:33;12.70;99.90
52725;DHT22;38621;52.830;6.914;2023-05-10T07:28:59;12.70;99.90
52725;DHT22;38621;52.830;6.914;2023-05-10T07:31:24;12.80;99.90
52725;DHT22;38621;52.830;6.914;2023-05-10T07:33:50;12.80;99.90
52725;DHT22;38621;52.830;6.914;2023-05-10T07:36:16;12.80;99.90
52725;DHT22;38621;52.830;6.914;2023-05-10T07:38:42;12.80;99.90
52725;DHT22;38621;52.830;6.914;2023-05-10T07:41:07;12.80;99.90
52725;DHT22;38621;52.830;6.914;2023-05-10T07:43:33;12.80;99.90
52725;DHT22;38621;52.830;6.914;2023-05-10T07:45:59;12.80;99.90
52725;DHT22;38621;52.830;6.914;2023-05-10T07:48:25;12.90;99.90
52725;DHT22;38621;52.830;6.914;2023-05-10T07:50:51;12.90;99.90
52725;DHT22;38621;52.830;6.914;2023-05-10T07:53:17;13.00;99.90
52725;DHT22;38621;52.830;6.914;2023-05-10T07:55:44;13.00;99.90
52725;DHT22;38621;52.830;6.914;2023-05-10T07:58:10;13.00;99.90
52725;DHT22;38621;52.830;6.914;2023-05-10T08:00:36;13.00;99.90
52725;DHT22;38621;52.830;6.914;2023-05-10T08:03:04;13.00;99.90
52725;DHT22;38621;52.830;6.914;2023-05-10T08:05:30;13.10;99.90
52725;DHT22;38621;52.830;6.914;2023-05-10T08:07:56;13.10;99.90
52725;DHT22;38621;52.830;6.914;2023-05-10T08:10:23;13.10;99.90
52725;DHT22;38621;52.830;6.914;2023-05-10T08:12:49;13.10;99.90
52725;DHT22;38621;52.830;6.914;2023-05-10T08:15:15;13.20;99.90
52725;DHT22;38621;52.830;6.914;2023-05-10T08:17:41;13.20;99.90
52725;DHT22;38621;52.830;6.914;2023-05-10T08:20:07;13.30;99.90
52725;DHT22;38621;52.830;6.914;2023-05-10T08:22:33;13.30;99.90
52725;DHT22;38621;52.830;6.914;2023-05-10T08:24:58;13.30;99.90
52725;DHT22;38621;52.830;6.914;2023-05-10T08:27:24;13.30;99.90
52725;DHT22;38621;52.830;6.914;2023-05-10T08:29:50;13.30;99.90
52725;DHT22;38621;52.830;6.914;2023-05-10T08:32:16;13.40;99.90
52725;DHT22;38621;52.830;6.914;2023-05-10T08:34:42;13.40;99.90
52725;DHT22;38621;52.830;6.914;2023-05-10T08:37:07;13.40;99.90
52725;DHT22;38621;52.830;6.914;2023-05-10T08:39:36;13.40;99.90
52725;DHT22;38621;52.830;6.914;2023-05-10T08:42:04;13.40;99.90
52725;DHT22;38621;52.830;6.914;2023-05-10T08:44:35;13.40;99.90
52725;DHT22;38621;52.830;6.914;2023-05-10T08:47:06;13.30;99.90
52725;DHT22;38621;52.830;6.914;2023-05-10T08:49:34;13.40;99.90
52725;DHT22;38621;52.830;6.914;2023-05-10T08:52:03;13.50;99.90
52725;DHT22;38621;52.830;6.914;2023-05-10T08:54:31;13.50;99.90
52725;DHT22;38621;52.830;6.914;2023-05-10T08:56:57;13.60;99.90
52725;DHT22;38621;52.830;6.914;2023-05-10T08:59:23;13.60;99.90
52725;DHT22;38621;52.830;6.914;2023-05-10T09:01:49;13.70;99.90
52725;DHT22;38621;52.830;6.914;2023-05-10T09:04:15;13.60;99.90
52725;DHT22;38621;52.830;6.914;2023-05-10T09:06:41;13.70;99.90
52725;DHT22;38621;52.830;6.914;2023-05-10T09:09:07;13.80;99.90
52725;DHT22;38621;52.830;6.914;2023-05-10T09:11:33;13.80;99.90
52725;DHT22;38621;52.830;6.914;2023-05-10T09:13:59;13.90;99.90
52725;DHT22;38621;52.830;6.914;2023-05-10T09:16:28;13.90;99.90
52725;DHT22;38621;52.830;6.914;2023-05-10T09:18:53;14.00;99.90
52725;DHT22;38621;52.830;6.914;2023-05-10T09:21:19;14.00;99.90
52725;DHT22;38621;52.830;6.914;2023-05-10T09:23:46;14.10;99.90
52725;DHT22;38621;52.830;6.914;2023-05-10T09:26:12;14.10;99.90
52725;DHT22;38621;52.830;6.914;2023-05-10T09:31:17;14.10;99.90
52725;DHT22;38621;52.830;6.914;2023-05-10T09:33:47;13.90;99.90
52725;DHT22;38621;52.830;6.914;2023-05-10T09:36:13;13.80;99.90
52725;DHT22;38621;52.830;6.914;2023-05-10T09:38:47;13.70;99.90
52725;DHT22;38621;52.830;6.914;2023-05-10T09:41:23;13.70;99.90
52725;DHT22;38621;52.830;6.914;2023-05-10T09:43:49;13.60;99.90
52725;DHT22;38621;52.830;6.914;2023-05-10T09:46:16;13.60;99.90
52725;DHT22;38621;52.830;6.914;2023-05-10T09:48:46;13.70;99.90
52725;DHT22;38621;52.830;6.914;2023-05-10T09:51:23;13.80;99.90
52725;DHT22;38621;52.830;6.914;2023-05-10T09:54:12;14.00;99.90
52725;DHT22;38621;52.830;6.914;2023-05-10T09:56:38;14.20;99.90
52725;DHT22;38621;52.830;6.914;2023-05-10T09:59:07;14.30;99.90
52725;DHT22;38621;52.830;6.914;2023-05-10T10:01:33;14.40;99.90
52725;DHT22;38621;52.830;6.914;2023-05-10T10:04:05;14.40;99.90
52725;DHT22;38621;52.830;6.914;2023-05-10T10:06:36;14.30;99.90
52725;DHT22;38621;52.830;6.914;2023-05-10T10:09:02;14.20;99.90
52725;DHT22;38621;52.830;6.914;2023-05-10T10:11:28;14.20;99.90
52725;DHT22;38621;52.830;6.914;2023-05-10T10:13:54;14.10;99.90
52725;DHT22;38621;52.830;6.914;2023-05-10T10:16:20;14.10;99.90
52725;DHT22;38621;52.830;6.914;2023-05-10T10:18:47;14.20;99.90
52725;DHT22;38621;52.830;6.914;2023-05-10T10:21:14;14.10;99.90
52725;DHT22;38621;52.830;6.914;2023-05-10T10:23:40;14.10;99.90
52725;DHT22;38621;52.830;6.914;2023-05-10T10:26:06;14.00;99.90
52725;DHT22;38621;52.830;6.914;2023-05-10T10:29:11;14.10;99.90
52725;DHT22;38621;52.830;6.914;2023-05-10T10:31:51;14.10;99.90
52725;DHT22;38621;52.830;6.914;2023-05-10T10:36:48;14.20;99.90
52725;DHT22;38621;52.830;6.914;2023-05-10T10:39:14;14.30;99.90
52725;DHT22;38621;52.830;6.914;2023-05-10T10:41:52;14.40;99.90
52725;DHT22;38621;52.830;6.914;2023-05-10T10:47:02;14.50;99.90
52725;DHT22;38621;52.830;6.914;2023-05-10T10:49:32;14.50;99.90
52725;DHT22;38621;52.830;6.914;2023-05-10T10:54:41;14.60;99.90
52725;DHT22;38621;52.830;6.914;2023-05-10T10:57:11;14.60;99.90
52725;DHT22;38621;52.830;6.914;2023-05-10T10:59:42;14.60;99.90
52725;DHT22;38621;52.830;6.914;2023-05-10T11:03:12;14.80;99.90
52725;DHT22;38621;52.830;6.914;2023-05-10T11:05:57;15.00;99.90
52725;DHT22;38621;52.830;6.914;2023-05-10T11:08:31;15.10;99.90
52725;DHT22;38621;52.830;6.914;2023-05-10T11:13:39;15.20;99.90
52725;DHT22;38621;52.830;6.914;2023-05-10T11:18:37;15.10;99.90
52725;DHT22;38621;52.830;6.914;2023-05-10T11:21:03;15.00;99.90
52725;DHT22;38621;52.830;6.914;2023-05-10T11:26:07;14.90;99.90
52725;DHT22;38621;52.830;6.914;2023-05-10T11:28:46;14.90;99.90
52725;DHT22;38621;52.830;6.914;2023-05-10T11:31:16;14.90;99.90
52725;DHT22;38621;52.830;6.914;2023-05-10T11:33:46;14.90;99.90
52725;DHT22;38621;52.830;6.914;2023-05-10T11:36:20;15.00;99.90
52725;DHT22;38621;52.830;6.914;2023-05-10T11:38:47;15.00;99.90
52725;DHT22;38621;52.830;6.914;2023-05-10T11:41:13;14.90;99.90
52725;DHT22;38621;52.830;6.914;2023-05-10T11:43:39;14.90;99.90
52725;DHT22;38621;52.830;6.914;2023-05-10T11:46:10;14.90;99.90
52725;DHT22;38621;52.830;6.914;2023-05-10T11:48:40;14.90;99.90
52725;DHT22;38621;52.830;6.914;2023-05-10T11:51:09;15.00;99.90
52725;DHT22;38621;52.830;6.914;2023-05-10T11:53:36;15.00;99.90
52725;DHT22;38621;52.830;6.914;2023-05-10T11:56:09;15.00;99.90
52725;DHT22;38621;52.830;6.914;2023-05-10T11:58:36;15.00;99.90
52725;DHT22;38621;52.830;6.914;2023-05-10T12:01:03;15.10;99.90
52725;DHT22;38621;52.830;6.914;2023-05-10T12:03:29;15.20;99.90
52725;DHT22;38621;52.830;6.914;2023-05-10T12:05:56;15.20;99.90
52725;DHT22;38621;52.830;6.914;2023-05-10T12:08:24;15.30;99.90
52725;DHT22;38621;52.830;6.914;2023-05-10T12:10:51;15.40;99.90
52725;DHT22;38621;52.830;6.914;2023-05-10T12:13:17;15.50;99.90
52725;DHT22;38621;52.830;6.914;2023-05-10T12:15:44;15.60;99.90
52725;DHT22;38621;52.830;6.914;2023-05-10T12:18:11;15.70;99.90
52725;DHT22;38621;52.830;6.914;2023-05-10T12:20:37;15.80;99.90
52725;DHT22;38621;52.830;6.914;2023-05-10T12:23:04;15.80;99.90
52725;DHT22;38621;52.830;6.914;2023-05-10T12:25:33;15.80;99.90
52725;DHT22;38621;52.830;6.914;2023-05-10T12:28:03;15.70;99.90
52725;DHT22;38621;52.830;6.914;2023-05-10T12:30:31;15.70;99.90
52725;DHT22;38621;52.830;6.914;2023-05-10T12:33:11;15.70;99.90
52725;DHT22;38621;52.830;6.914;2023-05-10T12:35:48;15.70;99.90
52725;DHT22;38621;52.830;6.914;2023-05-10T12:40:56;15.60;99.90
52725;DHT22;38621;52.830;6.914;2023-05-10T12:43:22;15.60;99.90
52725;DHT22;38621;52.830;6.914;2023-05-10T12:45:48;15.50;99.90
52725;DHT22;38621;52.830;6.914;2023-05-10T12:48:15;15.50;99.90
52725;DHT22;38621;52.830;6.914;2023-05-10T12:50:41;15.40;99.90
52725;DHT22;38621;52.830;6.914;2023-05-10T12:53:06;15.40;99.90
52725;DHT22;38621;52.830;6.914;2023-05-10T12:55:32;15.40;99.90
52725;DHT22;38621;52.830;6.914;2023-05-10T12:57:58;15.50;99.90
52725;DHT22;38621;52.830;6.914;2023-05-10T13:00:23;15.50;99.90
52725;DHT22;38621;52.830;6.914;2023-05-10T13:02:49;15.50;99.90
52725;DHT22;38621;52.830;6.914;2023-05-10T13:05:15;15.60;99.90
52725;DHT22;38621;52.830;6.914;2023-05-10T13:07:40;15.60;99.90
52725;DHT22;38621;52.830;6.914;2023-05-10T13:10:06;15.60;99.90
52725;DHT22;38621;52.830;6.914;2023-05-10T13:12:32;15.60;99.90
52725;DHT22;38621;52.830;6.914;2023-05-10T13:14:58;15.60;99.90
52725;DHT22;38621;52.830;6.914;2023-05-10T13:17:25;15.60;99.90
52725;DHT22;38621;52.830;6.914;2023-05-10T13:19:51;15.60;99.90
52725;DHT22;38621;52.830;6.914;2023-05-10T13:22:17;15.70;99.90
52725;DHT22;38621;52.830;6.914;2023-05-10T13:24:42;15.70;99.90
52725;DHT22;38621;52.830;6.914;2023-05-10T13:27:08;15.70;99.90
52725;DHT22;38621;52.830;6.914;2023-05-10T13:29:34;15.70;99.90
52725;DHT22;38621;52.830;6.914;2023-05-10T13:32:00;15.70;99.90
52725;DHT22;38621;52.830;6.914;2023-05-10T13:34:26;15.60;99.90
52725;DHT22;38621;52.830;6.914;2023-05-10T13:36:53;15.60;99.90
52725;DHT22;38621;52.830;6.914;2023-05-10T13:39:20;15.60;99.90
52725;DHT22;38621;52.830;6.914;2023-05-10T13:41:46;15.60;99.90
52725;DHT22;38621;52.830;6.914;2023-05-10T13:44:13;15.60;99.90
52725;DHT22;38621;52.830;6.914;2023-05-10T13:46:42;15.60;99.90
52725;DHT22;38621;52.830;6.914;2023-05-10T13:49:09;15.50;99.90
52725;DHT22;38621;52.830;6.914;2023-05-10T13:51:35;15.50;99.90
52725;DHT22;38621;52.830;6.914;2023-05-10T13:54:02;15.40;99.90
52725;DHT22;38621;52.830;6.914;2023-05-10T13:56:27;15.40;99.90
52725;DHT22;38621;52.830;6.914;2023-05-10T13:58:53;15.40;99.90
52725;DHT22;38621;52.830;6.914;2023-05-10T14:01:19;15.40;99.90
52725;DHT22;38621;52.830;6.914;2023-05-10T14:03:45;15.40;99.90
52725;DHT22;38621;52.830;6.914;2023-05-10T14:06:10;15.50;99.90
52725;DHT22;38621;52.830;6.914;2023-05-10T14:08:36;15.50;99.90
52725;DHT22;38621;52.830;6.914;2023-05-10T14:11:02;15.50;99.90
52725;DHT22;38621;52.830;6.914;2023-05-10T14:13:28;15.50;99.90
52725;DHT22;38621;52.830;6.914;2023-05-10T14:15:54;15.50;99.90
52725;DHT22;38621;52.830;6.914;2023-05-10T14:18:20;15.50;99.90
52725;DHT22;38621;52.830;6.914;2023-05-10T14:20:46;15.40;99.90
52725;DHT22;38621;52.830;6.914;2023-05-10T14:23:12;15.50;99.90
52725;DHT22;38621;52.830;6.914;2023-05-10T14:25:41;15.50;99.90
52725;DHT22;38621;52.830;6.914;2023-05-10T14:28:07;15.50;99.90
52725;DHT22;38621;52.830;6.914;2023-05-10T14:30:32;15.50;99.90
52725;DHT22;38621;52.830;6.914;2023-05-10T14:33:01;15.50;99.90
52725;DHT22;38621;52.830;6.914;2023-05-10T14:35:27;15.50;99.90
52725;DHT22;38621;52.830;6.914;2023-05-10T14:37:53;15.60;99.90
52725;DHT22;38621;52.830;6.914;2023-05-10T14:40:19;15.70;99.90
52725;DHT22;38621;52.830;6.914;2023-05-10T14:42:46;15.80;99.90
52725;DHT22;38621;52.830;6.914;2023-05-10T14:45:12;15.80;99.90
52725;DHT22;38621;52.830;6.914;2023-05-10T14:47:38;15.80;99.90
52725;DHT22;38621;52.830;6.914;2023-05-10T14:50:04;15.80;99.90
52725;DHT22;38621;52.830;6.914;2023-05-10T14:52:30;15.80;99.90
52725;DHT22;38621;52.830;6.914;2023-05-10T14:54:55;15.90;99.90
52725;DHT22;38621;52.830;6.914;2023-05-10T14:57:22;16.00;99.90
52725;DHT22;38621;52.830;6.914;2023-05-10T14:59:48;16.00;99.90
52725;DHT22;38621;52.830;6.914;2023-05-10T15:02:13;16.10;99.90
52725;DHT22;38621;52.830;6.914;2023-05-10T15:04:39;16.10;99.90
52725;DHT22;38621;52.830;6.914;2023-05-10T15:07:05;16.20;99.90
52725;DHT22;38621;52.830;6.914;2023-05-10T15:09:31;16.20;99.90
52725;DHT22;38621;52.830;6.914;2023-05-10T15:11:56;16.30;99.90
52725;DHT22;38621;52.830;6.914;2023-05-10T15:14:22;16.30;99.90
52725;DHT22;38621;52.830;6.914;2023-05-10T15:16:48;16.20;99.90
52725;DHT22;38621;52.830;6.914;2023-05-10T15:19:14;16.20;99.90
52725;DHT22;38621;52.830;6.914;2023-05-10T15:21:40;16.00;99.90
52725;DHT22;38621;52.830;6.914;2023-05-10T15:24:08;16.00;99.90
52725;DHT22;38621;52.830;6.914;2023-05-10T15:26:35;15.90;99.90
52725;DHT22;38621;52.830;6.914;2023-05-10T15:29:00;15.90;99.90
52725;DHT22;38621;52.830;6.914;2023-05-10T15:31:26;15.90;99.90
52725;DHT22;38621;52.830;6.914;2023-05-10T15:33:57;15.80;99.90
52725;DHT22;38621;52.830;6.914;2023-05-10T15:36:22;15.80;99.90
52725;DHT22;38621;52.830;6.914;2023-05-10T15:38:48;15.70;99.90
52725;DHT22;38621;52.830;6.914;2023-05-10T15:41:14;15.70;99.90
52725;DHT22;38621;52.830;6.914;2023-05-10T15:43:40;15.70;99.90
52725;DHT22;38621;52.830;6.914;2023-05-10T15:46:06;15.70;99.90
52725;DHT22;38621;52.830;6.914;2023-05-10T15:48:31;15.60;99.90
52725;DHT22;38621;52.830;6.914;2023-05-10T15:50:57;15.70;99.90
52725;DHT22;38621;52.830;6.914;2023-05-10T15:53:23;15.70;99.90
52725;DHT22;38621;52.830;6.914;2023-05-10T15:55:49;15.70;99.90
52725;DHT22;38621;52.830;6.914;2023-05-10T15:58:14;15.70;99.90
52725;DHT22;38621;52.830;6.914;2023-05-10T16:00:41;15.80;99.90
52725;DHT22;38621;52.830;6.914;2023-05-10T16:03:07;15.80;99.90
52725;DHT22;38621;52.830;6.914;2023-05-10T16:05:33;15.80;99.90
52725;DHT22;38621;52.830;6.914;2023-05-10T16:07:59;15.80;99.90
52725;DHT22;38621;52.830;6.914;2023-05-10T16:10:26;15.80;99.90
52725;DHT22;38621;52.830;6.914;2023-05-10T16:12:53;15.70;99.90